sensor_id;sensor_type;location;lat;lon;timestamp;P1;durP1;ratioP1;P2;durP2;ratioP2
4700;SDS011;8724;51.272;6.554;2022-09-02T00:00:55;3.13;;;1.73;;
4700;SDS011;8724;51.272;6.554;2022-09-02T00:03:27;3.67;;;1.90;;
4700;SDS011;8724;51.272;6.554;2022-09-02T00:05:56;4.00;;;2.00;;
4700;SDS011;8724;51.272;6.554;2022-09-02T00:08:25;1.70;;;1.50;;
4700;SDS011;8724;51.272;6.554;2022-09-02T00:10:53;2.63;;;1.70;;
4700;SDS011;8724;51.272;6.554;2022-09-02T00:13:21;3.40;;;1.40;;
4700;SDS011;8724;51.272;6.554;2022-09-02T00:15:49;2.60;;;1.60;;
4700;SDS011;8724;51.272;6.554;2022-09-02T00:18:19;2.33;;;1.73;;
4700;SDS011;8724;51.272;6.554;2022-09-02T00:20:47;2.80;;;1.53;;
4700;SDS011;8724;51.272;6.554;2022-09-02T00:23:16;2.63;;;1.70;;
4700;SDS011;8724;51.272;6.554;2022-09-02T00:25:45;5.07;;;1.80;;
4700;SDS011;8724;51.272;6.554;2022-09-02T00:28:14;1.80;;;1.67;;
4700;SDS011;8724;51.272;6.554;2022-09-02T00:30:46;2.50;;;1.80;;
4700;SDS011;8724;51.272;6.554;2022-09-02T00:33:15;4.90;;;1.97;;
4700;SDS011;8724;51.272;6.554;2022-09-02T00:35:45;1.47;;;1.37;;
4700;SDS011;8724;51.272;6.554;2022-09-02T00:38:13;2.70;;;1.60;;
4700;SDS011;8724;51.272;6.554;2022-09-02T00:40:42;2.30;;;1.43;;
4700;SDS011;8724;51.272;6.554;2022-09-02T00:43:11;5.33;;;1.87;;
4700;SDS011;8724;51.272;6.554;2022-09-02T00:45:50;2.67;;;1.70;;
4700;SDS011;8724;51.272;6.554;2022-09-02T00:48:20;3.87;;;1.60;;
4700;SDS011;8724;51.272;6.554;2022-09-02T00:50:49;4.23;;;1.60;;
4700;SDS011;8724;51.272;6.554;2022-09-02T00:53:18;6.23;;;1.90;;
4700;SDS011;8724;51.272;6.554;2022-09-02T00:55:47;2.27;;;1.63;;
4700;SDS011;8724;51.272;6.554;2022-09-02T00:58:18;2.70;;;1.77;;
4700;SDS011;8724;51.272;6.554;2022-09-02T01:00:48;5.27;;;2.20;;
4700;SDS011;8724;51.272;6.554;2022-09-02T01:03:24;1.40;;;1.30;;
4700;SDS011;8724;51.272;6.554;2022-09-02T01:05:56;3.33;;;1.30;;
4700;SDS011;8724;51.272;6.554;2022-09-02T01:08:32;2.13;;;1.50;;
4700;SDS011;8724;51.272;6.554;2022-09-02T01:11:02;1.50;;;1.40;;
4700;SDS011;8724;51.272;6.554;2022-09-02T01:13:34;1.57;;;1.47;;
4700;SDS011;8724;51.272;6.554;2022-09-02T01:16:07;2.27;;;1.73;;
4700;SDS011;8724;51.272;6.554;2022-09-02T01:18:47;3.30;;;1.77;;
4700;SDS011;8724;51.272;6.554;2022-09-02T01:21:19;2.50;;;1.60;;
4700;SDS011;8724;51.272;6.554;2022-09-02T01:23:49;4.10;;;1.80;;
4700;SDS011;8724;51.272;6.554;2022-09-02T01:26:19;1.60;;;1.50;;
4700;SDS011;8724;51.272;6.554;2022-09-02T01:28:47;1.60;;;1.50;;
4700;SDS011;8724;51.272;6.554;2022-09-02T01:31:16;1.47;;;1.33;;
4700;SDS011;8724;51.272;6.554;2022-09-02T01:33:44;1.90;;;1.80;;
4700;SDS011;8724;51.272;6.554;2022-09-02T01:36:12;1.67;;;1.53;;
4700;SDS011;8724;51.272;6.554;2022-09-02T01:38:41;1.70;;;1.40;;
4700;SDS011;8724;51.272;6.554;2022-09-02T01:41:10;1.80;;;1.70;;
4700;SDS011;8724;51.272;6.554;2022-09-02T01:43:38;4.97;;;1.67;;
4700;SDS011;8724;51.272;6.554;2022-09-02T01:46:07;1.67;;;1.43;;
4700;SDS011;8724;51.272;6.554;2022-09-02T01:48:35;2.50;;;2.30;;
4700;SDS011;8724;51.272;6.554;2022-09-02T01:51:04;2.33;;;1.90;;
4700;SDS011;8724;51.272;6.554;2022-09-02T01:53:33;2.80;;;1.80;;
4700;SDS011;8724;51.272;6.554;2022-09-02T01:56:04;4.50;;;1.50;;
4700;SDS011;8724;51.272;6.554;2022-09-02T01:58:34;3.00;;;1.60;;
4700;SDS011;8724;51.272;6.554;2022-09-02T02:01:03;2.63;;;1.40;;
4700;SDS011;8724;51.272;6.554;2022-09-02T02:03:33;1.67;;;1.50;;
4700;SDS011;8724;51.272;6.554;2022-09-02T02:06:06;1.57;;;1.17;;
4700;SDS011;8724;51.272;6.554;2022-09-02T02:08:37;2.23;;;1.90;;
4700;SDS011;8724;51.272;6.554;2022-09-02T02:11:06;1.50;;;1.40;;
4700;SDS011;8724;51.272;6.554;2022-09-02T02:13:36;2.07;;;1.40;;
4700;SDS011;8724;51.272;6.554;2022-09-02T02:16:05;1.43;;;1.30;;
4700;SDS011;8724;51.272;6.554;2022-09-02T02:18:33;2.27;;;1.70;;
4700;SDS011;8724;51.272;6.554;2022-09-02T02:21:03;1.83;;;1.70;;
4700;SDS011;8724;51.272;6.554;2022-09-02T02:23:31;1.27;;;1.17;;
4700;SDS011;8724;51.272;6.554;2022-09-02T02:25:59;6.10;;;1.63;;
4700;SDS011;8724;51.272;6.554;2022-09-02T02:28:28;1.57;;;1.40;;
4700;SDS011;8724;51.272;6.554;2022-09-02T02:30:58;2.50;;;1.40;;
4700;SDS011;8724;51.272;6.554;2022-09-02T02:33:28;3.27;;;1.50;;
4700;SDS011;8724;51.272;6.554;2022-09-02T02:36:03;1.40;;;1.30;;
4700;SDS011;8724;51.272;6.554;2022-09-02T02:38:33;1.30;;;1.20;;
4700;SDS011;8724;51.272;6.554;2022-09-02T02:41:02;2.30;;;1.50;;
4700;SDS011;8724;51.272;6.554;2022-09-02T02:43:32;1.67;;;1.57;;
4700;SDS011;8724;51.272;6.554;2022-09-02T02:46:03;3.63;;;1.57;;
4700;SDS011;8724;51.272;6.554;2022-09-02T02:48:35;2.30;;;1.30;;
4700;SDS011;8724;51.272;6.554;2022-09-02T02:51:04;2.40;;;1.67;;
4700;SDS011;8724;51.272;6.554;2022-09-02T02:53:33;6.17;;;1.67;;
4700;SDS011;8724;51.272;6.554;2022-09-02T02:56:02;3.83;;;1.50;;
4700;SDS011;8724;51.272;6.554;2022-09-02T02:58:31;2.03;;;1.60;;
4700;SDS011;8724;51.272;6.554;2022-09-02T03:01:00;6.37;;;1.77;;
4700;SDS011;8724;51.272;6.554;2022-09-02T03:03:31;2.80;;;1.20;;
4700;SDS011;8724;51.272;6.554;2022-09-02T03:06:00;8.67;;;1.50;;
4700;SDS011;8724;51.272;6.554;2022-09-02T03:08:29;1.80;;;1.17;;
4700;SDS011;8724;51.272;6.554;2022-09-02T03:10:58;2.70;;;1.60;;
4700;SDS011;8724;51.272;6.554;2022-09-02T03:13:30;1.33;;;1.00;;
4700;SDS011;8724;51.272;6.554;2022-09-02T03:16:00;1.20;;;1.10;;
4700;SDS011;8724;51.272;6.554;2022-09-02T03:18:33;2.03;;;1.60;;
4700;SDS011;8724;51.272;6.554;2022-09-02T03:21:05;1.50;;;1.23;;
4700;SDS011;8724;51.272;6.554;2022-09-02T03:23:35;1.40;;;1.30;;
4700;SDS011;8724;51.272;6.554;2022-09-02T03:26:07;2.90;;;1.10;;
4700;SDS011;8724;51.272;6.554;2022-09-02T03:28:39;1.30;;;1.20;;
4700;SDS011;8724;51.272;6.554;2022-09-02T03:31:11;2.97;;;1.17;;
4700;SDS011;8724;51.272;6.554;2022-09-02T03:33:43;3.50;;;1.10;;
4700;SDS011;8724;51.272;6.554;2022-09-02T03:36:18;1.93;;;1.50;;
4700;SDS011;8724;51.272;6.554;2022-09-02T03:38:49;4.23;;;1.90;;
4700;SDS011;8724;51.272;6.554;2022-09-02T03:41:17;1.70;;;1.60;;
4700;SDS011;8724;51.272;6.554;2022-09-02T03:43:47;2.07;;;1.50;;
4700;SDS011;8724;51.272;6.554;2022-09-02T03:46:16;5.00;;;1.30;;
4700;SDS011;8724;51.272;6.554;2022-09-02T03:48:47;4.70;;;1.53;;
4700;SDS011;8724;51.272;6.554;2022-09-02T03:51:18;2.07;;;1.73;;
4700;SDS011;8724;51.272;6.554;2022-09-02T03:53:48;3.63;;;1.40;;
4700;SDS011;8724;51.272;6.554;2022-09-02T03:56:17;3.33;;;1.57;;
4700;SDS011;8724;51.272;6.554;2022-09-02T03:58:47;2.33;;;2.13;;
4700;SDS011;8724;51.272;6.554;2022-09-02T04:01:20;1.90;;;1.40;;
4700;SDS011;8724;51.272;6.554;2022-09-02T04:03:55;3.60;;;1.67;;
4700;SDS011;8724;51.272;6.554;2022-09-02T04:06:24;1.97;;;1.60;;
4700;SDS011;8724;51.272;6.554;2022-09-02T04:08:59;1.67;;;1.57;;
4700;SDS011;8724;51.272;6.554;2022-09-02T04:11:28;4.60;;;1.80;;
4700;SDS011;8724;51.272;6.554;2022-09-02T04:13:58;1.67;;;1.57;;
4700;SDS011;8724;51.272;6.554;2022-09-02T04:23:36;2.67;;;1.90;;
4700;SDS011;8724;51.272;6.554;2022-09-02T04:26:06;1.43;;;1.33;;
4700;SDS011;8724;51.272;6.554;2022-09-02T04:28:38;1.73;;;1.40;;
4700;SDS011;8724;51.272;6.554;2022-09-02T04:31:07;2.00;;;1.80;;
4700;SDS011;8724;51.272;6.554;2022-09-02T04:33:39;8.20;;;6.00;;
4700;SDS011;8724;51.272;6.554;2022-09-02T04:36:13;12.40;;;7.77;;
4700;SDS011;8724;51.272;6.554;2022-09-02T04:38:45;5.53;;;4.80;;
4700;SDS011;8724;51.272;6.554;2022-09-02T04:41:16;16.10;;;9.93;;
4700;SDS011;8724;51.272;6.554;2022-09-02T04:43:49;9.10;;;7.23;;
4700;SDS011;8724;51.272;6.554;2022-09-02T04:46:18;4.53;;;3.73;;
4700;SDS011;8724;51.272;6.554;2022-09-02T04:49:01;3.20;;;2.57;;
4700;SDS011;8724;51.272;6.554;2022-09-02T04:51:32;4.20;;;1.90;;
4700;SDS011;8724;51.272;6.554;2022-09-02T04:54:05;2.53;;;1.77;;
4700;SDS011;8724;51.272;6.554;2022-09-02T04:56:36;1.67;;;1.57;;
4700;SDS011;8724;51.272;6.554;2022-09-02T04:59:06;5.47;;;2.10;;
4700;SDS011;8724;51.272;6.554;2022-09-02T05:01:39;2.47;;;1.73;;
4700;SDS011;8724;51.272;6.554;2022-09-02T05:04:14;2.00;;;1.80;;
4700;SDS011;8724;51.272;6.554;2022-09-02T05:06:47;2.83;;;1.90;;
4700;SDS011;8724;51.272;6.554;2022-09-02T05:09:20;2.60;;;1.53;;
4700;SDS011;8724;51.272;6.554;2022-09-02T05:11:54;2.63;;;2.30;;
4700;SDS011;8724;51.272;6.554;2022-09-02T05:14:29;1.33;;;1.23;;
4700;SDS011;8724;51.272;6.554;2022-09-02T05:17:02;4.13;;;2.00;;
4700;SDS011;8724;51.272;6.554;2022-09-02T05:19:37;4.70;;;2.10;;
4700;SDS011;8724;51.272;6.554;2022-09-02T05:22:06;3.63;;;2.37;;
4700;SDS011;8724;51.272;6.554;2022-09-02T05:24:41;3.10;;;1.77;;
4700;SDS011;8724;51.272;6.554;2022-09-02T05:27:12;1.93;;;1.67;;
4700;SDS011;8724;51.272;6.554;2022-09-02T05:29:44;2.10;;;1.83;;
4700;SDS011;8724;51.272;6.554;2022-09-02T05:32:15;3.87;;;1.80;;
4700;SDS011;8724;51.272;6.554;2022-09-02T05:34:46;24.90;;;19.63;;
4700;SDS011;8724;51.272;6.554;2022-09-02T05:37:15;22.63;;;16.07;;
4700;SDS011;8724;51.272;6.554;2022-09-02T05:39:47;13.00;;;9.37;;
4700;SDS011;8724;51.272;6.554;2022-09-02T05:42:16;7.57;;;5.50;;
4700;SDS011;8724;51.272;6.554;2022-09-02T05:44:49;7.73;;;3.40;;
4700;SDS011;8724;51.272;6.554;2022-09-02T05:47:21;7.40;;;3.10;;
4700;SDS011;8724;51.272;6.554;2022-09-02T05:49:52;2.60;;;1.90;;
4700;SDS011;8724;51.272;6.554;2022-09-02T05:52:22;2.23;;;1.60;;
4700;SDS011;8724;51.272;6.554;2022-09-02T05:54:54;5.80;;;1.80;;
4700;SDS011;8724;51.272;6.554;2022-09-02T05:57:23;3.30;;;1.60;;
4700;SDS011;8724;51.272;6.554;2022-09-02T05:59:56;5.47;;;1.83;;
4700;SDS011;8724;51.272;6.554;2022-09-02T06:02:38;2.50;;;1.80;;
4700;SDS011;8724;51.272;6.554;2022-09-02T06:05:12;3.10;;;1.93;;
4700;SDS011;8724;51.272;6.554;2022-09-02T06:07:46;2.87;;;1.90;;
4700;SDS011;8724;51.272;6.554;2022-09-02T06:10:20;2.90;;;2.07;;
4700;SDS011;8724;51.272;6.554;2022-09-02T06:12:49;2.90;;;1.90;;
4700;SDS011;8724;51.272;6.554;2022-09-02T06:15:20;7.60;;;1.97;;
4700;SDS011;8724;51.272;6.554;2022-09-02T06:17:49;14.90;;;7.60;;
4700;SDS011;8724;51.272;6.554;2022-09-02T06:20:17;65.27;;;42.90;;
4700;SDS011;8724;51.272;6.554;2022-09-02T06:22:47;43.50;;;34.23;;
4700;SDS011;8724;51.272;6.554;2022-09-02T06:25:21;26.47;;;20.43;;
4700;SDS011;8724;51.272;6.554;2022-09-02T06:27:50;12.73;;;10.20;;
4700;SDS011;8724;51.272;6.554;2022-09-02T06:30:19;15.27;;;7.87;;
4700;SDS011;8724;51.272;6.554;2022-09-02T06:32:48;6.03;;;4.87;;
4700;SDS011;8724;51.272;6.554;2022-09-02T06:35:18;3.90;;;2.70;;
4700;SDS011;8724;51.272;6.554;2022-09-02T06:37:46;3.73;;;2.73;;
4700;SDS011;8724;51.272;6.554;2022-09-02T06:40:15;3.23;;;1.87;;
4700;SDS011;8724;51.272;6.554;2022-09-02T06:42:47;3.67;;;1.77;;
4700;SDS011;8724;51.272;6.554;2022-09-02T06:45:37;3.50;;;1.77;;
4700;SDS011;8724;51.272;6.554;2022-09-02T06:48:07;4.93;;;1.80;;
4700;SDS011;8724;51.272;6.554;2022-09-02T06:50:38;3.00;;;1.50;;
4700;SDS011;8724;51.272;6.554;2022-09-02T06:53:07;2.70;;;1.73;;
4700;SDS011;8724;51.272;6.554;2022-09-02T06:55:39;3.40;;;1.60;;
4700;SDS011;8724;51.272;6.554;2022-09-02T06:58:11;2.60;;;1.70;;
4700;SDS011;8724;51.272;6.554;2022-09-02T07:00:40;1.63;;;1.33;;
4700;SDS011;8724;51.272;6.554;2022-09-02T07:03:10;11.90;;;1.97;;
4700;SDS011;8724;51.272;6.554;2022-09-02T07:06:03;2.70;;;1.50;;
4700;SDS011;8724;51.272;6.554;2022-09-02T07:08:37;3.13;;;1.50;;
4700;SDS011;8724;51.272;6.554;2022-09-02T07:11:07;2.20;;;1.87;;
4700;SDS011;8724;51.272;6.554;2022-09-02T07:13:44;5.87;;;3.20;;
4700;SDS011;8724;51.272;6.554;2022-09-02T07:16:15;20.23;;;17.40;;
4700;SDS011;8724;51.272;6.554;2022-09-02T07:18:53;32.80;;;23.03;;
4700;SDS011;8724;51.272;6.554;2022-09-02T07:21:23;20.60;;;15.97;;
4700;SDS011;8724;51.272;6.554;2022-09-02T07:23:52;12.30;;;11.00;;
4700;SDS011;8724;51.272;6.554;2022-09-02T07:26:20;10.20;;;8.73;;
4700;SDS011;8724;51.272;6.554;2022-09-02T07:28:52;6.73;;;5.37;;
4700;SDS011;8724;51.272;6.554;2022-09-02T07:31:23;4.40;;;3.90;;
4700;SDS011;8724;51.272;6.554;2022-09-02T07:33:53;4.00;;;3.60;;
4700;SDS011;8724;51.272;6.554;2022-09-02T07:36:25;3.23;;;2.27;;
4700;SDS011;8724;51.272;6.554;2022-09-02T07:38:56;4.10;;;2.30;;
4700;SDS011;8724;51.272;6.554;2022-09-02T07:41:24;2.43;;;2.10;;
4700;SDS011;8724;51.272;6.554;2022-09-02T07:43:54;3.03;;;1.70;;
4700;SDS011;8724;51.272;6.554;2022-09-02T07:46:27;3.03;;;1.70;;
4700;SDS011;8724;51.272;6.554;2022-09-02T07:48:57;2.27;;;1.73;;
4700;SDS011;8724;51.272;6.554;2022-09-02T07:51:26;2.50;;;2.00;;
4700;SDS011;8724;51.272;6.554;2022-09-02T07:53:58;4.67;;;1.50;;
4700;SDS011;8724;51.272;6.554;2022-09-02T07:56:26;2.30;;;1.77;;
4700;SDS011;8724;51.272;6.554;2022-09-02T07:58:56;3.50;;;2.07;;
4700;SDS011;8724;51.272;6.554;2022-09-02T08:01:25;1.90;;;1.50;;
4700;SDS011;8724;51.272;6.554;2022-09-02T08:03:54;2.03;;;1.77;;
4700;SDS011;8724;51.272;6.554;2022-09-02T08:06:30;4.97;;;1.50;;
4700;SDS011;8724;51.272;6.554;2022-09-02T08:09:00;1.90;;;1.70;;
4700;SDS011;8724;51.272;6.554;2022-09-02T08:11:30;7.90;;;7.03;;
4700;SDS011;8724;51.272;6.554;2022-09-02T08:14:03;16.70;;;14.90;;
4700;SDS011;8724;51.272;6.554;2022-09-02T08:16:31;13.93;;;12.50;;
4700;SDS011;8724;51.272;6.554;2022-09-02T08:19:00;11.00;;;9.70;;
4700;SDS011;8724;51.272;6.554;2022-09-02T08:21:29;7.90;;;6.50;;
4700;SDS011;8724;51.272;6.554;2022-09-02T08:23:57;5.43;;;4.93;;
4700;SDS011;8724;51.272;6.554;2022-09-02T08:26:26;4.43;;;3.97;;
4700;SDS011;8724;51.272;6.554;2022-09-02T08:28:54;5.03;;;3.10;;
4700;SDS011;8724;51.272;6.554;2022-09-02T08:31:24;2.80;;;2.60;;
4700;SDS011;8724;51.272;6.554;2022-09-02T08:33:53;3.87;;;2.00;;
4700;SDS011;8724;51.272;6.554;2022-09-02T08:36:21;5.10;;;2.37;;
4700;SDS011;8724;51.272;6.554;2022-09-02T08:38:49;2.20;;;2.00;;
4700;SDS011;8724;51.272;6.554;2022-09-02T08:41:19;1.70;;;1.60;;
4700;SDS011;8724;51.272;6.554;2022-09-02T08:43:50;1.60;;;1.50;;
4700;SDS011;8724;51.272;6.554;2022-09-02T08:46:21;3.87;;;1.67;;
4700;SDS011;8724;51.272;6.554;2022-09-02T08:48:54;2.77;;;1.53;;
4700;SDS011;8724;51.272;6.554;2022-09-02T08:51:26;1.70;;;1.60;;
4700;SDS011;8724;51.272;6.554;2022-09-02T08:54:04;2.33;;;1.40;;
4700;SDS011;8724;51.272;6.554;2022-09-02T08:56:34;5.30;;;1.40;;
4700;SDS011;8724;51.272;6.554;2022-09-02T08:59:03;1.33;;;1.23;;
4700;SDS011;8724;51.272;6.554;2022-09-02T09:01:35;1.43;;;1.33;;
4700;SDS011;8724;51.272;6.554;2022-09-02T09:04:14;2.30;;;1.60;;
4700;SDS011;8724;51.272;6.554;2022-09-02T09:06:48;1.60;;;1.50;;
4700;SDS011;8724;51.272;6.554;2022-09-02T09:09:24;1.60;;;1.50;;
4700;SDS011;8724;51.272;6.554;2022-09-02T09:12:04;1.87;;;1.47;;
4700;SDS011;8724;51.272;6.554;2022-09-02T09:14:40;1.60;;;1.40;;
4700;SDS011;8724;51.272;6.554;2022-09-02T09:17:16;1.40;;;1.30;;
4700;SDS011;8724;51.272;6.554;2022-09-02T09:19:54;2.03;;;1.50;;
4700;SDS011;8724;51.272;6.554;2022-09-02T09:22:28;1.70;;;1.50;;
4700;SDS011;8724;51.272;6.554;2022-09-02T09:25:04;2.30;;;1.50;;
4700;SDS011;8724;51.272;6.554;2022-09-02T09:27:37;1.60;;;1.50;;
4700;SDS011;8724;51.272;6.554;2022-09-02T09:30:06;1.40;;;1.30;;
4700;SDS011;8724;51.272;6.554;2022-09-02T09:32:41;2.00;;;1.50;;
4700;SDS011;8724;51.272;6.554;2022-09-02T09:35:14;2.20;;;1.53;;
4700;SDS011;8724;51.272;6.554;2022-09-02T09:37:44;1.53;;;1.43;;
4700;SDS011;8724;51.272;6.554;2022-09-02T09:40:21;2.50;;;1.60;;
4700;SDS011;8724;51.272;6.554;2022-09-02T09:42:53;1.50;;;1.40;;
4700;SDS011;8724;51.272;6.554;2022-09-02T09:45:28;1.20;;;1.10;;
4700;SDS011;8724;51.272;6.554;2022-09-02T09:48:16;1.53;;;1.43;;
4700;SDS011;8724;51.272;6.554;2022-09-02T09:51:08;5.03;;;4.57;;
4700;SDS011;8724;51.272;6.554;2022-09-02T09:53:38;13.17;;;11.60;;
4700;SDS011;8724;51.272;6.554;2022-09-02T09:56:19;10.50;;;9.37;;
4700;SDS011;8724;51.272;6.554;2022-09-02T09:58:52;7.53;;;6.83;;
4700;SDS011;8724;51.272;6.554;2022-09-02T10:01:21;5.90;;;5.30;;
4700;SDS011;8724;51.272;6.554;2022-09-02T10:03:52;5.00;;;4.23;;
4700;SDS011;8724;51.272;6.554;2022-09-02T10:06:35;4.90;;;3.90;;
4700;SDS011;8724;51.272;6.554;2022-09-02T10:09:05;3.27;;;2.97;;
4700;SDS011;8724;51.272;6.554;2022-09-02T10:11:55;3.20;;;2.90;;
4700;SDS011;8724;51.272;6.554;2022-09-02T10:14:25;2.77;;;2.57;;
4700;SDS011;8724;51.272;6.554;2022-09-02T10:17:00;2.67;;;2.47;;
4700;SDS011;8724;51.272;6.554;2022-09-02T10:19:41;2.03;;;1.83;;
4700;SDS011;8724;51.272;6.554;2022-09-02T10:25:27;2.20;;;2.00;;
4700;SDS011;8724;51.272;6.554;2022-09-02T10:28:02;2.33;;;1.70;;
4700;SDS011;8724;51.272;6.554;2022-09-02T10:30:54;2.07;;;1.67;;
4700;SDS011;8724;51.272;6.554;2022-09-02T10:33:35;3.63;;;1.80;;
4700;SDS011;8724;51.272;6.554;2022-09-02T10:36:14;1.90;;;1.80;;
4700;SDS011;8724;51.272;6.554;2022-09-02T10:38:52;1.50;;;1.40;;
4700;SDS011;8724;51.272;6.554;2022-09-02T10:41:31;2.90;;;1.67;;
4700;SDS011;8724;51.272;6.554;2022-09-02T10:44:13;3.50;;;2.30;;
4700;SDS011;8724;51.272;6.554;2022-09-02T10:46:57;13.10;;;5.60;;
4700;SDS011;8724;51.272;6.554;2022-09-02T10:49:31;14.80;;;6.40;;
4700;SDS011;8724;51.272;6.554;2022-09-02T10:52:30;14.93;;;5.70;;
4700;SDS011;8724;51.272;6.554;2022-09-02T10:55:08;11.30;;;5.30;;
4700;SDS011;8724;51.272;6.554;2022-09-02T10:57:44;11.50;;;5.50;;
4700;SDS011;8724;51.272;6.554;2022-09-02T11:00:17;7.20;;;3.87;;
4700;SDS011;8724;51.272;6.554;2022-09-02T11:02:46;16.97;;;11.80;;
4700;SDS011;8724;51.272;6.554;2022-09-02T11:05:18;15.60;;;14.00;;
4700;SDS011;8724;51.272;6.554;2022-09-02T11:07:50;18.00;;;13.27;;
4700;SDS011;8724;51.272;6.554;2022-09-02T11:10:24;6.73;;;6.10;;
4700;SDS011;8724;51.272;6.554;2022-09-02T11:12:56;3.93;;;3.53;;
4700;SDS011;8724;51.272;6.554;2022-09-02T11:15:31;2.40;;;2.20;;
4700;SDS011;8724;51.272;6.554;2022-09-02T11:18:11;4.23;;;2.40;;
4700;SDS011;8724;51.272;6.554;2022-09-02T11:20:46;2.30;;;2.00;;
4700;SDS011;8724;51.272;6.554;2022-09-02T11:23:20;3.97;;;1.80;;
4700;SDS011;8724;51.272;6.554;2022-09-02T11:25:59;2.20;;;1.80;;
4700;SDS011;8724;51.272;6.554;2022-09-02T11:28:35;2.33;;;2.13;;
4700;SDS011;8724;51.272;6.554;2022-09-02T11:31:09;1.40;;;1.27;;
4700;SDS011;8724;51.272;6.554;2022-09-02T11:33:47;2.00;;;1.60;;
4700;SDS011;8724;51.272;6.554;2022-09-02T11:36:19;1.27;;;1.27;;
4700;SDS011;8724;51.272;6.554;2022-09-02T11:38:51;1.50;;;1.40;;
4700;SDS011;8724;51.272;6.554;2022-09-02T11:41:27;1.30;;;1.20;;
4700;SDS011;8724;51.272;6.554;2022-09-02T11:44:10;1.50;;;1.40;;
4700;SDS011;8724;51.272;6.554;2022-09-02T11:47:02;1.40;;;1.30;;
4700;SDS011;8724;51.272;6.554;2022-09-02T11:49:55;1.50;;;1.40;;
4700;SDS011;8724;51.272;6.554;2022-09-02T11:52:44;1.23;;;1.13;;
4700;SDS011;8724;51.272;6.554;2022-09-02T11:55:24;1.37;;;1.27;;
4700;SDS011;8724;51.272;6.554;2022-09-02T11:58:00;1.20;;;1.10;;
4700;SDS011;8724;51.272;6.554;2022-09-02T12:00:30;1.30;;;1.20;;
4700;SDS011;8724;51.272;6.554;2022-09-02T12:03:14;1.63;;;1.20;;
4700;SDS011;8724;51.272;6.554;2022-09-02T12:06:09;1.00;;;1.00;;
4700;SDS011;8724;51.272;6.554;2022-09-02T12:11:40;1.60;;;1.30;;
4700;SDS011;8724;51.272;6.554;2022-09-02T12:14:59;1.10;;;1.00;;
4700;SDS011;8724;51.272;6.554;2022-09-02T12:17:32;1.17;;;1.10;;
4700;SDS011;8724;51.272;6.554;2022-09-02T12:26:24;1.50;;;1.40;;
4700;SDS011;8724;51.272;6.554;2022-09-02T12:29:09;1.30;;;1.17;;
4700;SDS011;8724;51.272;6.554;2022-09-02T12:31:38;1.60;;;1.50;;
4700;SDS011;8724;51.272;6.554;2022-09-02T12:40:24;1.10;;;1.00;;
4700;SDS011;8724;51.272;6.554;2022-09-02T12:42:58;1.47;;;1.37;;
4700;SDS011;8724;51.272;6.554;2022-09-02T12:45:31;0.87;;;0.87;;
4700;SDS011;8724;51.272;6.554;2022-09-02T12:48:01;1.20;;;1.10;;
4700;SDS011;8724;51.272;6.554;2022-09-02T12:50:53;1.00;;;1.00;;
4700;SDS011;8724;51.272;6.554;2022-09-02T12:53:28;1.60;;;1.03;;
4700;SDS011;8724;51.272;6.554;2022-09-02T12:56:02;1.10;;;1.00;;
4700;SDS011;8724;51.272;6.554;2022-09-02T12:58:38;1.10;;;1.10;;
4700;SDS011;8724;51.272;6.554;2022-09-02T13:01:12;1.40;;;1.30;;
4700;SDS011;8724;51.272;6.554;2022-09-02T13:03:50;3.73;;;3.47;;
4700;SDS011;8724;51.272;6.554;2022-09-02T13:06:33;6.30;;;5.70;;
4700;SDS011;8724;51.272;6.554;2022-09-02T13:09:14;5.40;;;4.93;;
4700;SDS011;8724;51.272;6.554;2022-09-02T13:15:28;8.20;;;2.87;;
4700;SDS011;8724;51.272;6.554;2022-09-02T13:18:21;2.40;;;2.20;;
4700;SDS011;8724;51.272;6.554;2022-09-02T13:21:06;2.00;;;1.90;;
4700;SDS011;8724;51.272;6.554;2022-09-02T13:23:55;1.90;;;1.80;;
4700;SDS011;8724;51.272;6.554;2022-09-02T13:29:47;2.10;;;1.90;;
4700;SDS011;8724;51.272;6.554;2022-09-02T13:32:35;1.53;;;1.43;;
4700;SDS011;8724;51.272;6.554;2022-09-02T13:35:05;1.53;;;1.40;;
4700;SDS011;8724;51.272;6.554;2022-09-02T13:37:52;1.57;;;1.47;;
4700;SDS011;8724;51.272;6.554;2022-09-02T13:40:29;1.00;;;1.00;;
4700;SDS011;8724;51.272;6.554;2022-09-02T13:43:00;1.13;;;1.03;;
4700;SDS011;8724;51.272;6.554;2022-09-02T13:45:31;1.20;;;1.10;;
4700;SDS011;8724;51.272;6.554;2022-09-02T13:48:01;1.20;;;1.10;;
4700;SDS011;8724;51.272;6.554;2022-09-02T13:50:35;1.43;;;1.00;;
4700;SDS011;8724;51.272;6.554;2022-09-02T13:53:04;1.30;;;1.00;;
4700;SDS011;8724;51.272;6.554;2022-09-02T13:55:56;0.90;;;0.90;;
4700;SDS011;8724;51.272;6.554;2022-09-02T13:58:31;1.23;;;1.20;;
4700;SDS011;8724;51.272;6.554;2022-09-02T14:01:19;1.43;;;1.33;;
4700;SDS011;8724;51.272;6.554;2022-09-02T14:03:50;7.40;;;6.70;;
4700;SDS011;8724;51.272;6.554;2022-09-02T14:06:21;6.53;;;5.87;;
4700;SDS011;8724;51.272;6.554;2022-09-02T14:08:51;4.30;;;3.90;;
4700;SDS011;8724;51.272;6.554;2022-09-02T14:11:25;3.83;;;3.33;;
4700;SDS011;8724;51.272;6.554;2022-09-02T14:13:55;2.87;;;2.67;;
4700;SDS011;8724;51.272;6.554;2022-09-02T14:16:28;2.43;;;2.23;;
4700;SDS011;8724;51.272;6.554;2022-09-02T14:19:03;2.43;;;2.23;;
4700;SDS011;8724;51.272;6.554;2022-09-02T14:21:32;2.30;;;1.93;;
4700;SDS011;8724;51.272;6.554;2022-09-02T14:24:01;1.50;;;1.40;;
4700;SDS011;8724;51.272;6.554;2022-09-02T14:26:34;1.10;;;1.10;;
4700;SDS011;8724;51.272;6.554;2022-09-02T14:29:05;1.40;;;1.30;;
4700;SDS011;8724;51.272;6.554;2022-09-02T14:31:34;1.43;;;1.27;;
4700;SDS011;8724;51.272;6.554;2022-09-02T14:34:03;2.87;;;1.30;;
4700;SDS011;8724;51.272;6.554;2022-09-02T14:37:00;1.30;;;1.20;;
4700;SDS011;8724;51.272;6.554;2022-09-02T14:39:49;3.13;;;1.10;;
4700;SDS011;8724;51.272;6.554;2022-09-02T14:42:20;1.27;;;1.20;;
4700;SDS011;8724;51.272;6.554;2022-09-02T14:44:48;1.20;;;1.10;;
4700;SDS011;8724;51.272;6.554;2022-09-02T14:47:16;1.30;;;1.20;;
4700;SDS011;8724;51.272;6.554;2022-09-02T14:49:50;1.00;;;1.00;;
4700;SDS011;8724;51.272;6.554;2022-09-02T14:52:22;2.20;;;1.13;;
4700;SDS011;8724;51.272;6.554;2022-09-02T14:54:53;1.50;;;1.40;;
4700;SDS011;8724;51.272;6.554;2022-09-02T14:57:25;1.30;;;1.20;;
4700;SDS011;8724;51.272;6.554;2022-09-02T14:59:59;1.30;;;1.20;;
4700;SDS011;8724;51.272;6.554;2022-09-02T15:02:29;1.53;;;1.20;;
4700;SDS011;8724;51.272;6.554;2022-09-02T15:05:00;1.07;;;1.07;;
4700;SDS011;8724;51.272;6.554;2022-09-02T15:07:30;1.40;;;1.30;;
4700;SDS011;8724;51.272;6.554;2022-09-02T15:09:59;1.13;;;1.00;;
4700;SDS011;8724;51.272;6.554;2022-09-02T15:12:29;1.50;;;1.40;;
4700;SDS011;8724;51.272;6.554;2022-09-02T15:15:00;7.73;;;6.93;;
4700;SDS011;8724;51.272;6.554;2022-09-02T15:17:28;12.20;;;10.90;;
4700;SDS011;8724;51.272;6.554;2022-09-02T15:19:56;10.53;;;7.93;;
4700;SDS011;8724;51.272;6.554;2022-09-02T15:22:25;7.70;;;6.20;;
4700;SDS011;8724;51.272;6.554;2022-09-02T15:24:54;5.50;;;4.60;;
4700;SDS011;8724;51.272;6.554;2022-09-02T15:27:23;3.90;;;3.33;;
4700;SDS011;8724;51.272;6.554;2022-09-02T15:29:53;2.70;;;2.43;;
4700;SDS011;8724;51.272;6.554;2022-09-02T15:32:21;1.73;;;1.60;;
4700;SDS011;8724;51.272;6.554;2022-09-02T15:34:52;2.50;;;1.87;;
4700;SDS011;8724;51.272;6.554;2022-09-02T15:37:21;1.50;;;1.40;;
4700;SDS011;8724;51.272;6.554;2022-09-02T15:39:49;1.70;;;1.60;;
4700;SDS011;8724;51.272;6.554;2022-09-02T15:42:18;1.50;;;1.40;;
4700;SDS011;8724;51.272;6.554;2022-09-02T15:44:46;1.20;;;1.10;;
4700;SDS011;8724;51.272;6.554;2022-09-02T15:47:15;1.30;;;1.30;;
4700;SDS011;8724;51.272;6.554;2022-09-02T15:49:44;1.03;;;0.97;;
4700;SDS011;8724;51.272;6.554;2022-09-02T15:52:12;1.40;;;1.30;;
4700;SDS011;8724;51.272;6.554;2022-09-02T15:54:40;3.23;;;2.90;;
4700;SDS011;8724;51.272;6.554;2022-09-02T15:57:08;5.40;;;4.90;;
4700;SDS011;8724;51.272;6.554;2022-09-02T15:59:37;6.83;;;5.77;;
4700;SDS011;8724;51.272;6.554;2022-09-02T16:02:05;4.77;;;4.37;;
4700;SDS011;8724;51.272;6.554;2022-09-02T16:04:34;10.23;;;3.93;;
4700;SDS011;8724;51.272;6.554;2022-09-02T16:07:03;3.30;;;3.00;;
4700;SDS011;8724;51.272;6.554;2022-09-02T16:09:31;3.50;;;3.20;;
4700;SDS011;8724;51.272;6.554;2022-09-02T16:11:59;3.00;;;2.80;;
4700;SDS011;8724;51.272;6.554;2022-09-02T16:14:28;3.07;;;2.77;;
4700;SDS011;8724;51.272;6.554;2022-09-02T16:16:56;3.10;;;2.80;;
4700;SDS011;8724;51.272;6.554;2022-09-02T16:19:25;2.47;;;2.27;;